Terminal Aerodrome Forecast
Issued by NWS

Home | Current Version | Previous Version | Text Only | Print | Product List | Glossary On
Versions: 1 2 3 4 5 6 7 8 9 10 11 12 13 14 15 16 17 18
000
FTUS44 KCRP 291123
TAFALI
TAF
KALI 291123Z 2912/3012 14012G22KT 6SM HZ OVC020
     FM291400 17018G24KT P6SM BKN025
     FM291900 14015G25KT P6SM SCT035
     FM300200 14018G22KT 6SM BR BKN015
     FM300700 36012G20KT P6SM OVC050=

USA.gov is the U.S. government's official web portal to all federal, state and local government web resources and services.